Time;durP1;ratioP1;P1;durP2;ratioP2;P2;SDS_P1;SDS_P2;PMS_P1;PMS_P2;Temp;Humidity;BMP_temperature;BMP_pressure;BME280_temperature;BME280_humidity;BME280_pressure;Samples;Min_cycle;Max_cycle;Signal;HPM_P1;HPM_P2
2021/09/08 00:01:24;;;;;;;11.10;4.70;;;;;;;11.34;63.35;101807.55;117251;1181;21853;-58
2021/09/08 00:03:52;;;;;;;8.00;4.20;;;;;;;11.29;63.43;101810.49;117404;1186;23055;-62
2021/09/08 00:06:21;;;;;;;13.30;5.10;;;;;;;11.26;63.42;101809.05;117426;1186;23448;-57
2021/09/08 00:08:50;;;;;;;10.60;4.60;;;;;;;11.27;63.35;101805.56;117385;1186;23465;-61
2021/09/08 00:11:18;;;;;;;10.60;4.70;;;;;;;11.28;63.25;101807.49;117415;1183;21855;-58
2021/09/08 00:13:46;;;;;;;16.90;5.10;;;;;;;11.26;63.45;101809.06;117425;1185;21860;-57
2021/09/08 00:16:34;;;;;;;7.90;3.90;;;;;;;11.24;63.44;101812.39;117478;1185;21869;-61
2021/09/08 00:19:02;;;;;;;9.30;4.70;;;;;;;11.23;63.36;101812.91;117324;1185;21854;-58
2021/09/08 00:21:30;;;;;;;10.80;4.60;;;;;;;11.22;63.34;101813.27;117356;1182;21855;-58
2021/09/08 00:23:59;;;;;;;12.40;4.40;;;;;;;11.21;63.27;101813.79;117375;1185;21974;-57
2021/09/08 00:26:27;;;;;;;11.30;5.80;;;;;;;11.19;63.29;101817.45;117334;1185;21857;-62
2021/09/08 00:28:56;;;;;;;9.60;4.50;;;;;;;11.18;63.30;101818.32;117380;1185;23460;-61
2021/09/08 00:31:24;;;;;;;8.70;3.90;;;;;;;11.19;63.23;101816.05;117367;1183;24740;-61
2021/09/08 00:33:52;;;;;;;13.20;4.80;;;;;;;11.17;63.37;101813.21;117499;1185;23447;-61
2021/09/08 00:36:21;;;;;;;8.50;4.30;;;;;;;11.15;63.25;101813.73;117348;1186;21855;-62
2021/09/08 00:38:50;;;;;;;8.30;4.00;;;;;;;11.15;63.28;101816.02;117401;1181;23438;-62
2021/09/08 00:41:18;;;;;;;10.80;4.90;;;;;;;11.09;63.27;101821.40;117386;1184;23445;-62
2021/09/08 00:43:47;;;;;;;8.00;4.30;;;;;;;11.07;63.27;101818.92;117372;1184;21854;-57
2021/09/08 00:46:15;;;;;;;11.60;4.90;;;;;;;11.07;63.16;101823.67;117430;1185;22006;-60
2021/09/08 00:48:45;;;;;;;8.80;4.70;;;;;;;11.04;63.18;101825.40;117303;1186;23574;-62
2021/09/08 00:51:13;;;;;;;10.10;5.00;;;;;;;11.02;63.13;101825.39;117432;1185;21905;-58
2021/09/08 00:53:41;;;;;;;10.90;4.60;;;;;;;11.05;63.02;101828.56;117416;1183;24142;-57
2021/09/08 00:56:09;;;;;;;10.20;4.70;;;;;;;11.02;63.07;101829.42;117269;1185;23464;-62
2021/09/08 00:58:37;;;;;;;8.10;5.00;;;;;;;10.92;63.33;101828.80;117137;1186;21855;-58
2021/09/08 01:01:05;;;;;;;8.70;4.50;;;;;;;10.90;63.34;101823.34;117388;1188;21888;-63
2021/09/08 01:03:34;;;;;;;6.70;4.50;;;;;;;10.89;63.29;101825.27;117327;1183;24163;-58
2021/09/08 01:06:02;;;;;;;11.30;4.70;;;;;;;10.87;63.45;101821.02;117416;1185;21861;-56
2021/09/08 01:08:31;;;;;;;10.70;4.30;;;;;;;10.85;63.34;101818.72;117309;1183;22644;-58
2021/09/08 01:11:05;;;;;;;11.70;4.90;;;;;;;10.82;63.19;101819.23;117234;1186;23573;-62
2021/09/08 01:13:34;;;;;;;9.60;4.60;;;;;;;10.81;63.37;101816.23;117432;1182;23440;-56
2021/09/08 01:16:05;;;;;;;8.60;4.40;;;;;;;10.77;63.22;101817.42;117311;1186;21856;-57
2021/09/08 01:18:45;;;;;;;10.00;4.70;;;;;;;10.73;63.30;101814.40;117352;1185;23423;-57
2021/09/08 01:21:14;;;;;;;11.30;4.70;;;;;;;10.74;63.19;101813.53;117331;1186;21856;-57
2021/09/08 01:23:42;;;;;;;9.50;4.60;;;;;;;10.72;63.33;101810.52;117322;1183;23442;-57
2021/09/08 01:26:11;;;;;;;10.40;4.70;;;;;;;10.70;63.17;101806.46;117399;1182;22833;-57
2021/09/08 01:28:39;;;;;;;10.60;4.10;;;;;;;10.67;63.36;101808.02;117397;1185;23441;-62
2021/09/08 01:31:07;;;;;;;8.20;4.30;;;;;;;10.67;63.21;101809.41;117321;1180;21848;-58
2021/09/08 01:33:36;;;;;;;8.20;4.30;;;;;;;10.65;63.31;101808.70;117431;1186;23452;-61
2021/09/08 01:36:04;;;;;;;7.80;4.20;;;;;;;10.63;63.20;101806.92;117378;1185;21842;-58
2021/09/08 01:38:32;;;;;;;14.50;4.50;;;;;;;10.62;63.32;101810.24;117369;1186;21873;-62
2021/09/08 01:41:00;;;;;;;8.20;4.30;;;;;;;10.61;63.32;101806.55;117441;1184;23463;-58
2021/09/08 01:43:29;;;;;;;8.30;4.30;;;;;;;10.61;63.26;101802.52;117441;1183;21861;-62
2021/09/08 01:45:57;;;;;;;10.10;4.70;;;;;;;10.58;63.22;101798.11;117405;1183;23475;-62
2021/09/08 01:48:25;;;;;;;9.00;4.20;;;;;;;10.57;63.09;101796.86;117406;1186;23523;-62
2021/09/08 01:51:00;;;;;;;13.20;4.60;;;;;;;10.54;63.11;101796.50;117419;1186;23564;-58
2021/09/08 01:53:28;;;;;;;10.90;4.80;;;;;;;10.52;63.30;101793.48;117358;1183;21862;-58
2021/09/08 01:55:57;;;;;;;12.70;4.60;;;;;;;10.49;63.12;101793.10;117428;1185;22005;-61
2021/09/08 01:58:25;;;;;;;7.70;4.00;;;;;;;10.47;63.17;101794.64;117346;1186;21876;-62
2021/09/08 02:00:53;;;;;;;9.20;4.20;;;;;;;10.50;63.16;101790.98;117355;1182;21882;-58
2021/09/08 02:03:22;;;;;;;8.60;4.60;;;;;;;10.45;63.38;101789.89;117326;1181;21861;-62
2021/09/08 02:05:51;;;;;;;9.50;4.10;;;;;;;10.43;63.27;101787.75;117497;1183;22815;-59
2021/09/08 02:08:19;;;;;;;10.10;4.40;;;;;;;10.39;63.12;101791.73;117410;1186;21855;-58
2021/09/08 02:10:47;;;;;;;7.50;4.50;;;;;;;10.37;63.14;101790.11;117313;1185;23441;-58
2021/09/08 02:13:16;;;;;;;8.00;4.00;;;;;;;10.35;63.24;101793.08;117374;1185;23462;-61
2021/09/08 02:15:56;;;;;;;8.90;4.60;;;;;;;10.29;63.32;101794.60;117302;1186;23439;-57
2021/09/08 02:18:44;;;;;;;8.20;4.40;;;;;;;10.31;63.34;101789.35;117285;1185;21852;-58
2021/09/08 02:21:12;;;;;;;9.60;4.80;;;;;;;10.28;63.31;101792.81;117427;1186;21839;-61
2021/09/08 02:23:40;;;;;;;8.60;4.50;;;;;;;10.25;63.24;101792.27;117361;1186;23553;-61
2021/09/08 02:26:08;;;;;;;11.00;5.50;;;;;;;10.28;63.23;101788.80;117428;1183;21891;-57
2021/09/08 02:28:40;;;;;;;10.00;4.00;;;;;;;10.25;63.30;101790.69;117344;1183;21861;-57
2021/09/08 02:31:09;;;;;;;8.80;4.80;;;;;;;10.22;63.27;101790.11;117258;1182;21861;-60
2021/09/08 02:33:37;;;;;;;10.20;4.90;;;;;;;10.22;63.12;101789.24;117410;1183;21857;-61
2021/09/08 02:36:05;;;;;;;10.70;4.90;;;;;;;10.25;63.03;101785.95;117342;1183;21871;-57
2021/09/08 02:38:34;;;;;;;9.80;4.70;;;;;;;10.23;63.08;101785.56;117369;1182;21854;-57
2021/09/08 02:41:07;;;;;;;11.20;4.30;;;;;;;10.19;63.34;101787.09;117231;1186;22616;-57
2021/09/08 02:43:35;;;;;;;9.30;4.80;;;;;;;10.18;63.18;101788.48;117347;1187;21857;-57
2021/09/08 02:46:03;;;;;;;9.50;4.60;;;;;;;10.16;63.10;101788.83;117416;1186;21842;-61
2021/09/08 02:48:32;;;;;;;12.50;4.70;;;;;;;10.12;63.25;101789.66;117295;1186;23047;-61
2021/09/08 02:51:11;;;;;;;9.20;4.30;;;;;;;10.09;63.11;101788.74;117342;1186;21994;-60
2021/09/08 02:53:40;;;;;;;9.40;5.30;;;;;;;10.06;63.16;101786.78;117314;1185;23441;-62
2021/09/08 02:56:10;;;;;;;9.70;4.90;;;;;;;10.04;63.10;101789.55;117372;1185;23466;-61
2021/09/08 02:58:38;;;;;;;9.70;4.30;;;;;;;10.04;63.11;101790.08;117373;1184;21851;-57
2021/09/08 03:01:06;;;;;;;7.70;4.40;;;;;;;10.03;63.13;101788.48;117364;1186;21911;-57
2021/09/08 03:03:38;;;;;;;10.80;5.00;;;;;;;10.03;63.07;101787.09;117389;1183;22729;-58
2021/09/08 03:06:06;;;;;;;10.70;4.60;;;;;;;10.00;62.98;101787.93;117408;1184;22642;-57
2021/09/08 03:08:34;;;;;;;10.90;4.50;;;;;;;9.96;62.98;101787.36;117359;1184;21841;-61
2021/09/08 03:11:03;;;;;;;13.20;5.10;;;;;;;9.92;63.11;101786.08;117421;1185;23461;-61
2021/09/08 03:13:31;;;;;;;10.60;5.00;;;;;;;9.86;63.05;101787.58;117377;1186;22981;-58
2021/09/08 03:16:08;;;;;;;8.80;4.70;;;;;;;9.87;63.13;101783.91;117402;1176;23454;-61
2021/09/08 03:18:36;;;;;;;10.10;4.40;;;;;;;9.86;63.02;101786.35;117452;1183;23484;-57
2021/09/08 03:21:05;;;;;;;10.50;4.80;;;;;;;9.86;63.05;101788.61;117256;1186;23440;-61
2021/09/08 03:23:33;;;;;;;66.70;8.20;;;;;;;9.86;63.10;101795.46;117306;1186;21854;-61
2021/09/08 03:26:01;;;;;;;14.70;5.30;;;;;;;9.84;63.03;101797.38;117309;1176;21862;-61
2021/09/08 03:28:29;;;;;;;13.00;4.60;;;;;;;9.82;63.15;101800.84;117363;1186;21854;-57
2021/09/08 03:30:58;;;;;;;10.50;4.60;;;;;;;9.80;63.32;101804.48;117314;1183;23441;-62
2021/09/08 03:33:26;;;;;;;13.50;6.40;;;;;;;9.80;63.19;101805.20;117420;1183;21853;-61
2021/09/08 03:35:54;;;;;;;6.80;3.60;;;;;;;9.80;63.14;101805.56;117393;1185;23461;-57
2021/09/08 03:38:22;;;;;;;7.80;4.10;;;;;;;9.77;63.28;101807.96;117467;1182;24165;-57
2021/09/08 03:40:51;;;;;;;9.40;4.00;;;;;;;9.79;63.31;101810.96;117406;1180;21894;-57
2021/09/08 03:43:19;;;;;;;18.20;4.60;;;;;;;9.82;63.30;101812.60;117423;1186;21854;-58
2021/09/08 03:45:47;;;;;;;9.60;4.50;;;;;;;9.85;63.31;101812.80;117348;1183;23455;-63
2021/09/08 03:48:16;;;;;;;11.00;4.50;;;;;;;9.90;63.31;101816.39;117420;1183;22850;-58
2021/09/08 03:50:44;;;;;;;10.20;4.50;;;;;;;9.92;63.46;101816.41;117367;1184;21862;-59
2021/09/08 03:53:12;;;;;;;14.50;5.60;;;;;;;9.93;63.32;101820.45;117345;1183;23504;-58
2021/09/08 03:55:42;;;;;;;8.20;4.20;;;;;;;9.91;63.62;101821.66;117337;1186;23587;-58
2021/09/08 03:58:10;;;;;;;12.00;4.60;;;;;;;9.93;63.64;101819.92;117371;1183;22850;-58
2021/09/08 04:00:38;;;;;;;11.10;4.60;;;;;;;9.97;63.79;101827.70;117385;1185;22624;-58
2021/09/08 04:03:07;;;;;;;9.60;4.80;;;;;;;10.01;63.85;101826.86;117392;1185;24219;-62
2021/09/08 04:05:35;;;;;;;8.50;4.50;;;;;;;10.07;63.84;101832.57;117496;1185;23471;-58
2021/09/08 04:08:04;;;;;;;11.90;4.80;;;;;;;10.12;63.96;101834.57;117341;1183;23436;-62
2021/09/08 04:10:32;;;;;;;21.70;5.70;;;;;;;10.15;64.11;101831.27;117361;1186;23500;-58
2021/09/08 04:13:00;;;;;;;12.10;5.00;;;;;;;10.20;64.08;101835.00;117393;1185;23442;-58
2021/09/08 04:15:29;;;;;;;10.80;5.20;;;;;;;10.27;64.21;101833.34;117368;1185;22779;-59
2021/09/08 04:17:58;;;;;;;14.80;4.40;;;;;;;10.35;64.16;101836.60;117482;1182;23432;-64
2021/09/08 04:20:27;;;;;;;10.80;5.40;;;;;;;10.47;64.31;101840.09;117379;1186;21865;-58
2021/09/08 04:22:55;;;;;;;11.50;4.70;;;;;;;10.56;64.21;101838.27;117319;1181;21863;-59
2021/09/08 04:25:23;;;;;;;11.50;4.80;;;;;;;10.66;64.17;101837.67;117309;1186;21867;-60
2021/09/08 04:27:52;;;;;;;12.10;5.30;;;;;;;10.75;64.09;101835.31;117426;1183;23441;-64
2021/09/08 04:30:20;;;;;;;11.10;4.70;;;;;;;10.81;64.28;101840.64;117363;1183;21855;-64
2021/09/08 04:32:48;;;;;;;12.40;5.50;;;;;;;10.92;64.50;101838.29;117258;1182;23041;-57
2021/09/08 04:35:16;;;;;;;13.40;5.10;;;;;;;11.02;64.34;101840.31;117319;1184;23442;-62
2021/09/08 04:37:44;;;;;;;8.80;4.70;;;;;;;11.11;64.43;101842.33;117352;1182;21871;-64
2021/09/08 04:40:13;;;;;;;9.20;4.20;;;;;;;11.22;64.57;101839.27;117404;1183;21854;-65
2021/09/08 04:42:41;;;;;;;8.30;4.60;;;;;;;11.30;64.63;101839.50;117355;1186;21858;-57
2021/09/08 04:45:10;;;;;;;10.60;4.80;;;;;;;11.41;64.54;101839.58;117404;1185;23567;-65
2021/09/08 04:47:38;;;;;;;8.70;4.30;;;;;;;11.52;64.56;101845.64;117289;1186;23441;-65
2021/09/08 04:50:08;;;;;;;9.60;4.70;;;;;;;11.63;64.83;101844.31;117364;1183;23545;-65
2021/09/08 04:52:36;;;;;;;9.30;4.40;;;;;;;11.76;64.59;101847.90;117375;1186;21854;-57
2021/09/08 04:55:07;;;;;;;7.50;4.00;;;;;;;11.90;64.61;101845.88;117349;1185;24316;-57
2021/09/08 04:57:40;;;;;;;10.20;4.50;;;;;;;12.03;64.78;101849.14;117362;1182;23460;-64
2021/09/08 05:00:09;;;;;;;6.90;4.10;;;;;;;12.19;64.80;101851.88;117413;1183;21860;-64
2021/09/08 05:02:37;;;;;;;12.20;4.00;;;;;;;12.35;64.96;101856.87;117447;1185;21851;-58
2021/09/08 05:05:06;;;;;;;8.10;4.30;;;;;;;12.56;65.01;101853.41;117313;1182;23475;-64
2021/09/08 05:07:36;;;;;;;;;;;;;;;12.76;65.03;101852.23;117373;1188;21910;-58
2021/09/08 05:10:05;;;;;;;8.30;4.30;;;;;;;12.96;65.06;101851.39;117321;1185;21850;-65
2021/09/08 05:12:33;;;;;;;11.00;4.10;;;;;;;13.19;65.19;101852.64;117420;1182;23441;-58
2021/09/08 05:15:05;;;;;;;11.00;3.70;;;;;;;13.42;65.38;101847.38;117432;1186;24290;-59
2021/09/08 05:17:34;;;;;;;10.30;4.20;;;;;;;13.69;65.46;101851.59;117363;1184;22932;-61
2021/09/08 05:20:04;;;;;;;12.00;3.70;;;;;;;13.94;65.43;101846.06;117374;1184;21948;-56
2021/09/08 05:22:33;;;;;;;12.10;3.80;;;;;;;14.19;65.45;101849.69;117607;1185;24190;-60
2021/09/08 05:25:01;;;;;;;20.90;4.90;;;;;;;14.43;65.51;101845.87;117370;1185;23461;-57
2021/09/08 05:27:30;;;;;;;13.50;5.20;;;;;;;14.64;65.60;101840.46;117370;1186;22918;-61
2021/09/08 05:29:59;;;;;;;11.30;3.90;;;;;;;14.86;65.57;101838.41;117388;1184;23569;-57
2021/09/08 05:32:27;;;;;;;8.70;4.50;;;;;;;15.06;65.61;101839.69;117254;1186;23466;-57
2021/09/08 05:34:56;;;;;;;29.50;14.50;;;;;;;15.28;65.63;101838.42;117268;1185;24130;-57
2021/09/08 05:37:28;;;;;;;14.80;6.30;;;;;;;15.54;65.76;101835.55;117370;1185;23843;-57
2021/09/08 05:39:56;;;;;;;13.50;5.80;;;;;;;15.82;65.95;101828.55;117468;1181;21862;-60
2021/09/08 05:42:24;;;;;;;11.90;4.40;;;;;;;16.15;65.97;101827.48;117341;1181;21865;-55
2021/09/08 05:44:52;;;;;;;10.10;3.80;;;;;;;16.48;65.95;101822.98;117349;1183;23515;-61
2021/09/08 05:47:21;;;;;;;7.70;3.70;;;;;;;16.77;65.99;101821.14;117339;1185;21857;-62
2021/09/08 05:49:49;;;;;;;9.70;3.90;;;;;;;17.08;65.92;101820.15;117332;1185;23547;-61
2021/09/08 05:52:20;;;;;;;12.10;4.30;;;;;;;17.35;65.97;101815.45;117360;1182;23432;-56
2021/09/08 05:54:48;;;;;;;9.40;3.70;;;;;;;17.64;66.03;101815.64;117248;1186;23446;-56
2021/09/08 05:57:16;;;;;;;7.70;3.80;;;;;;;17.91;66.17;101815.12;117123;1182;23446;-56
2021/09/08 05:59:45;;;;;;;14.00;3.90;;;;;;;18.19;66.33;101814.39;117238;1186;23463;-56
2021/09/08 06:02:13;;;;;;;9.30;4.00;;;;;;;18.45;66.33;101812.92;117137;1186;21915;-61
2021/09/08 06:04:41;;;;;;;8.80;3.70;;;;;;;18.70;66.32;101813.61;117253;1182;23910;-61
2021/09/08 06:07:10;;;;;;;11.50;4.40;;;;;;;18.92;66.25;101812.73;117177;1187;21864;-57
2021/09/08 06:09:38;;;;;;;10.30;3.60;;;;;;;19.13;66.30;101806.73;117307;1186;23467;-63
2021/09/08 06:12:07;;;;;;;8.50;3.60;;;;;;;19.38;66.43;101803.95;117373;1185;21851;-63
2021/09/08 06:14:35;;;;;;;11.30;3.70;;;;;;;19.65;66.49;101800.19;117389;1185;23520;-57
2021/09/08 06:17:07;;;;;;;8.20;3.40;;;;;;;19.95;66.54;101801.86;117267;1185;23525;-57
2021/09/08 06:19:37;;;;;;;11.20;3.30;;;;;;;20.25;66.63;101798.86;117284;1185;23653;-63
2021/09/08 06:22:05;;;;;;;8.90;3.70;;;;;;;20.50;66.48;101801.48;117271;1186;23474;-57
2021/09/08 06:24:34;;;;;;;8.90;3.10;;;;;;;20.70;66.51;101804.59;117272;1183;23469;-63
2021/09/08 06:27:03;;;;;;;9.10;3.80;;;;;;;20.94;66.71;101801.53;117281;1185;23897;-62
2021/09/08 06:29:31;;;;;;;8.40;3.20;;;;;;;21.21;66.62;101796.19;117360;1186;21866;-56
2021/09/08 06:32:00;;;;;;;10.80;3.40;;;;;;;21.42;66.63;101801.32;117428;1183;23439;-62
2021/09/08 06:34:29;;;;;;;6.90;3.10;;;;;;;21.69;66.80;101798.81;117265;1186;24236;-63
2021/09/08 06:36:57;;;;;;;8.80;3.40;;;;;;;21.92;66.76;101796.88;117155;1189;23497;-62
2021/09/08 06:39:25;;;;;;;11.00;3.60;;;;;;;22.19;66.70;101793.19;117177;1187;21857;-63
2021/09/08 06:41:53;;;;;;;9.20;3.30;;;;;;;22.36;66.87;101795.55;117108;1185;21855;-58
2021/09/08 06:44:23;;;;;;;8.00;3.20;;;;;;;22.54;66.93;101794.90;117265;1186;21857;-53
2021/09/08 06:46:52;;;;;;;7.30;3.20;;;;;;;22.77;67.05;101797.88;117334;1182;23076;-61
2021/09/08 06:49:21;;;;;;;7.20;3.40;;;;;;;22.94;67.22;101793.61;117146;1185;23538;-64
2021/09/08 06:51:49;;;;;;;6.80;3.20;;;;;;;23.12;67.10;101786.40;117215;1186;21901;-62
2021/09/08 06:54:17;;;;;;;7.10;3.00;;;;;;;23.28;67.25;101784.49;117349;1183;21865;-62
2021/09/08 06:56:46;;;;;;;8.10;2.90;;;;;;;23.46;67.14;101777.14;117484;1185;22505;-54
2021/09/08 06:59:14;;;;;;;7.50;3.00;;;;;;;23.65;67.18;101775.37;117309;1182;23461;-55
2021/09/08 07:01:42;;;;;;;9.80;3.10;;;;;;;23.80;67.34;101776.64;117327;1185;23466;-62
2021/09/08 07:04:11;;;;;;;7.50;3.00;;;;;;;23.97;67.35;101778.94;117354;1185;23563;-55
2021/09/08 07:06:39;;;;;;;6.10;2.80;;;;;;;24.16;67.37;101776.09;117328;1183;23482;-61
2021/09/08 07:09:09;;;;;;;8.30;3.30;;;;;;;24.33;67.24;101773.70;117448;1184;21879;-63
2021/09/08 07:11:55;;;;;;;11.00;3.60;;;;;;;24.51;67.33;101772.45;117365;1185;23456;-61
2021/09/08 07:14:23;;;;;;;6.40;2.90;;;;;;;24.72;67.37;101774.13;117414;1186;21855;-58
2021/09/08 07:16:52;;;;;;;6.30;3.00;;;;;;;24.95;67.55;101774.42;117404;1185;22006;-58
2021/09/08 07:19:21;;;;;;;9.00;3.40;;;;;;;25.16;67.51;101776.23;117384;1183;23441;-63
2021/09/08 07:21:50;;;;;;;9.40;3.50;;;;;;;25.35;67.46;101774.52;117421;1186;23446;-59
2021/09/08 07:24:18;;;;;;;12.60;4.20;;;;;;;25.53;67.37;101772.92;117409;1182;23555;-61
2021/09/08 07:26:46;;;;;;;7.40;3.50;;;;;;;25.71;67.32;101771.20;117426;1184;21992;-57
2021/09/08 07:29:15;;;;;;;7.10;3.30;;;;;;;25.86;67.50;101774.36;118305;1183;21859;-64
2021/09/08 07:31:43;;;;;;;10.70;3.60;;;;;;;26.04;67.51;101773.03;117376;1182;23712;-63
2021/09/08 07:34:11;;;;;;;9.10;3.40;;;;;;;26.18;67.41;101772.28;117427;1185;23532;-56
2021/09/08 07:36:39;;;;;;;8.50;3.50;;;;;;;26.35;67.38;101770.94;117454;1185;24156;-57
2021/09/08 07:39:08;;;;;;;6.70;3.00;;;;;;;26.55;67.49;101774.33;117425;1188;24138;-62
2021/09/08 07:41:36;;;;;;;8.50;2.90;;;;;;;26.80;67.46;101777.02;117376;1184;21861;-62
2021/09/08 07:44:04;;;;;;;6.40;2.70;;;;;;;26.93;67.48;101771.41;117396;1185;21860;-56
2021/09/08 07:46:33;;;;;;;7.60;2.90;;;;;;;27.10;67.32;101770.95;117307;1186;23525;-62
2021/09/08 07:49:02;;;;;;;7.20;2.60;;;;;;;27.28;67.27;101771.28;117365;1185;21898;-63
2021/09/08 07:51:31;;;;;;;5.90;2.60;;;;;;;27.47;67.21;101771.63;117404;1182;22658;-64
2021/09/08 07:54:00;;;;;;;6.00;2.90;;;;;;;27.61;67.03;101768.06;117342;1184;21854;-55
2021/09/08 07:56:28;;;;;;;5.50;2.80;;;;;;;27.76;67.17;101772.20;117431;1182;22844;-64
2021/09/08 07:58:57;;;;;;;8.90;3.10;;;;;;;27.89;67.13;101771.17;117377;1182;22816;-54
2021/09/08 08:01:26;;;;;;;8.00;2.60;;;;;;;28.00;67.01;101768.66;117318;1184;23441;-68
2021/09/08 08:03:54;;;;;;;5.60;2.70;;;;;;;28.13;67.21;101767.67;117361;1183;23554;-58
2021/09/08 08:06:23;;;;;;;7.30;3.00;;;;;;;28.23;66.99;101764.50;117324;1185;22673;-57
2021/09/08 08:08:51;;;;;;;5.80;2.80;;;;;;;28.35;67.08;101765.19;117270;1182;22022;-56
2021/09/08 08:11:19;;;;;;;9.50;3.20;;;;;;;28.46;66.90;101764.29;117350;1183;21842;-55
2021/09/08 08:13:47;;;;;;;6.10;2.70;;;;;;;28.59;66.88;101763.07;117408;1184;21861;-54
2021/09/08 08:16:32;;;;;;;7.10;2.80;;;;;;;28.78;66.92;101762.18;117430;1185;23441;-57
2021/09/08 08:19:01;;;;;;;5.40;3.00;;;;;;;29.01;66.88;101759.94;117413;1186;22319;-55
2021/09/08 08:21:31;;;;;;;5.80;2.80;;;;;;;29.22;66.94;101761.33;117412;1185;23476;-62
2021/09/08 08:24:00;;;;;;;11.40;3.50;;;;;;;29.39;66.86;101761.79;117493;1185;21911;-56
2021/09/08 08:26:29;;;;;;;6.70;2.60;;;;;;;29.51;66.90;101762.58;117406;1183;22915;-66
2021/09/08 08:28:57;;;;;;;5.90;2.30;;;;;;;29.65;66.81;101761.42;117364;1184;21862;-63
2021/09/08 08:31:25;;;;;;;6.30;2.70;;;;;;;29.78;66.74;101760.14;117333;1185;22652;-58
2021/09/08 08:33:53;;;;;;;5.10;2.50;;;;;;;29.90;66.80;101758.05;117344;1184;23486;-62
2021/09/08 08:36:22;;;;;;;6.00;2.30;;;;;;;29.95;66.61;101755.27;117367;1184;23474;-62
2021/09/08 08:38:50;;;;;;;9.00;3.00;;;;;;;30.02;66.77;101755.21;117385;1185;22542;-57
2021/09/08 08:41:18;;;;;;;4.90;2.50;;;;;;;30.13;66.81;101752.72;117344;1185;21864;-64
2021/09/08 08:43:46;;;;;;;5.60;2.50;;;;;;;30.30;66.99;101755.83;117347;1183;22831;-62
2021/09/08 08:46:14;;;;;;;6.90;2.70;;;;;;;30.42;67.17;101749.15;117334;1186;21860;-63
2021/09/08 08:48:43;;;;;;;7.40;3.10;;;;;;;30.48;67.08;101743.33;117157;1186;23426;-54
2021/09/08 08:51:11;;;;;;;6.90;2.60;;;;;;;30.54;67.03;101744.62;117327;1185;21859;-54
2021/09/08 08:53:41;;;;;;;10.40;2.80;;;;;;;30.70;67.12;101741.65;117357;1185;22908;-64
2021/09/08 08:56:09;;;;;;;6.80;2.30;;;;;;;30.89;67.08;101735.67;117304;1186;21864;-63
2021/09/08 08:58:37;;;;;;;7.80;3.60;;;;;;;31.04;66.97;101732.87;117256;1186;23459;-62
2021/09/08 09:01:22;;;;;;;6.00;2.60;;;;;;;31.10;66.89;101731.70;117380;1183;23436;-63
2021/09/08 09:03:57;;;;;;;6.40;2.60;;;;;;;31.18;67.07;101730.16;117312;1188;21858;-56
2021/09/08 09:06:26;;;;;;;6.40;3.20;;;;;;;31.27;67.15;101728.98;117404;1183;23797;-55
2021/09/08 09:09:08;;;;;;;4.80;2.40;;;;;;;31.39;67.10;101724.16;117375;1182;23461;-54
2021/09/08 09:11:44;;;;;;;5.00;2.60;;;;;;;31.52;67.21;101724.63;117330;1185;21855;-57
2021/09/08 09:14:12;;;;;;;4.40;2.60;;;;;;;31.68;67.08;101720.94;117363;1182;21855;-58
2021/09/08 09:16:42;;;;;;;17.70;2.60;;;;;;;31.75;67.13;101708.47;117373;1185;21933;-55
2021/09/08 09:19:11;;;;;;;6.90;3.00;;;;;;;31.72;66.43;101710.57;117429;1183;22908;-55
2021/09/08 09:21:40;;;;;;;5.10;2.60;;;;;;;31.66;66.56;101715.38;117454;1185;23564;-68
2021/09/08 09:24:08;;;;;;;4.90;2.70;;;;;;;31.73;66.72;101716.05;117351;1186;21863;-70
2021/09/08 09:26:39;;;;;;;6.30;3.10;;;;;;;31.87;66.87;101716.94;117387;1185;21845;-55
2021/09/08 09:29:13;;;;;;;6.20;2.60;;;;;;;32.03;66.79;101715.98;117368;1185;21851;-59
2021/09/08 09:31:56;;;;;;;5.90;2.70;;;;;;;32.10;66.49;101714.53;117416;1185;23439;-55
2021/09/08 09:34:30;;;;;;;8.20;2.80;;;;;;;32.11;66.47;101712.27;117305;1184;24156;-55
2021/09/08 09:36:59;;;;;;;5.70;2.60;;;;;;;32.11;66.46;101709.52;117382;1189;21857;-72
2021/09/08 09:39:29;;;;;;;6.20;2.70;;;;;;;32.15;66.76;101710.11;117381;1182;21932;-55
2021/09/08 09:41:58;;;;;;;28.10;4.70;;;;;;;32.30;66.90;101703.63;117388;1185;23635;-68
2021/09/08 09:44:29;;;;;;;6.30;2.80;;;;;;;32.29;66.66;101697.52;117338;1185;22909;-54
2021/09/08 09:47:00;;;;;;;4.80;2.70;;;;;;;32.38;66.92;101699.16;117384;1185;21868;-55
2021/09/08 09:49:31;;;;;;;6.10;2.90;;;;;;;32.52;66.96;101700.38;117308;1184;21857;-55
2021/09/08 09:52:06;;;;;;;5.50;3.00;;;;;;;32.59;66.98;101696.24;117381;1185;21894;-66
2021/09/08 09:54:34;;;;;;;4.20;2.50;;;;;;;32.61;66.51;101695.17;117396;1183;22935;-70
2021/09/08 09:57:03;;;;;;;6.50;3.00;;;;;;;32.59;66.41;101694.08;117430;1185;23470;-54
2021/09/08 09:59:31;;;;;;;4.90;2.40;;;;;;;32.64;66.89;101693.45;117261;1184;22054;-55
2021/09/08 10:01:59;;;;;;;6.20;2.60;;;;;;;32.76;66.98;101689.94;117333;1187;21845;-56
2021/09/08 10:04:28;;;;;;;8.40;2.90;;;;;;;32.79;66.66;101688.01;117413;1185;23487;-55
2021/09/08 10:06:56;;;;;;;5.20;2.90;;;;;;;32.75;66.31;101686.41;117382;1185;22915;-55
2021/09/08 10:09:25;;;;;;;4.70;2.60;;;;;;;32.60;66.20;101686.70;117429;1183;21861;-54
2021/09/08 10:11:54;;;;;;;5.10;2.80;;;;;;;32.46;66.48;101687.52;117250;1186;21857;-55
2021/09/08 10:14:26;;;;;;;7.10;2.80;;;;;;;32.59;66.83;101680.84;117166;1189;23469;-65
2021/09/08 10:16:54;;;;;;;4.40;2.50;;;;;;;32.80;67.21;101678.82;117353;1183;22612;-68
2021/09/08 10:19:27;;;;;;;7.40;2.90;;;;;;;32.97;67.39;101678.30;117398;1183;23466;-67
2021/09/08 10:22:06;;;;;;;5.10;2.60;;;;;;;33.14;67.59;101672.81;117414;1185;23441;-61
2021/09/08 10:24:34;;;;;;;6.90;2.80;;;;;;;33.32;67.56;101670.17;117432;1183;23006;-54
2021/09/08 10:27:19;;;;;;;4.40;2.90;;;;;;;33.42;67.49;101664.91;117360;1182;21868;-55
2021/09/08 10:29:50;;;;;;;9.10;2.60;;;;;;;33.49;67.30;101663.03;117398;1183;21857;-66
2021/09/08 10:32:19;;;;;;;5.50;2.60;;;;;;;33.56;67.25;101661.53;117124;1185;21855;-54
2021/09/08 10:34:48;;;;;;;7.40;2.90;;;;;;;33.60;67.27;101659.32;117289;1183;22652;-54
2021/09/08 10:37:17;;;;;;;5.50;3.10;;;;;;;33.61;66.81;101656.89;117329;1182;21855;-54
2021/09/08 10:39:46;;;;;;;6.20;2.90;;;;;;;33.58;66.79;101651.18;117359;1183;23630;-69
2021/09/08 10:42:15;;;;;;;7.90;3.10;;;;;;;33.57;66.87;101648.52;117405;1185;22932;-55
2021/09/08 10:45:03;;;;;;;4.30;3.00;;;;;;;33.67;67.13;101651.64;117365;1182;23461;-56
2021/09/08 10:47:35;;;;;;;4.60;2.70;;;;;;;33.77;67.25;101656.69;117331;1185;21853;-64
2021/09/08 10:50:07;;;;;;;6.00;3.30;;;;;;;33.86;67.18;101652.11;117398;1183;21855;-62
2021/09/08 10:52:36;;;;;;;17.60;3.40;;;;;;;33.95;67.29;101647.42;117429;1185;21896;-61
2021/09/08 10:55:08;;;;;;;16.20;3.70;;;;;;;33.97;66.84;101644.38;117388;1186;21854;-53
2021/09/08 10:57:40;;;;;;;15.00;3.20;;;;;;;33.90;66.60;101640.61;117423;1185;23529;-53
2021/09/08 11:00:36;;;;;;;6.30;3.30;;;;;;;33.92;66.74;101639.02;117366;1185;23461;-52
2021/09/08 11:03:26;;;;;;;10.30;2.90;;;;;;;34.02;66.93;101633.90;117349;1184;22905;-54
2021/09/08 11:05:56;;;;;;;5.80;2.60;;;;;;;34.22;67.28;101634.39;117380;1183;23525;-55
2021/09/08 11:08:30;;;;;;;21.50;4.90;;;;;;;34.26;67.10;101631.66;117425;1183;21854;-66
2021/09/08 11:11:06;;;;;;;8.70;3.10;;;;;;;34.16;66.63;101628.38;117405;1185;23468;-54
2021/09/08 11:13:57;;;;;;;7.60;3.20;;;;;;;34.21;66.93;101629.61;117370;1182;23570;-55
2021/09/08 11:16:46;;;;;;;7.00;2.70;;;;;;;34.34;66.96;101626.56;117260;1185;21868;-64
2021/09/08 11:19:16;;;;;;;6.10;3.00;;;;;;;34.33;66.98;101621.38;117115;1183;21857;-66
2021/09/08 11:21:44;;;;;;;7.70;2.90;;;;;;;34.32;66.94;101623.69;117298;1182;21867;-67
2021/09/08 11:24:13;;;;;;;5.30;3.00;;;;;;;34.35;66.95;101619.30;117372;1185;23438;-55
2021/09/08 11:26:41;;;;;;;6.50;2.60;;;;;;;34.46;67.13;101620.93;117478;1184;22915;-55